Time;durP1;ratioP1;P1;durP2;ratioP2;P2;SDS_P1;SDS_P2;PMS_P1;PMS_P2;Temp;Humidity;BMP_temperature;BMP_pressure;BME280_temperature;BME280_humidity;BME280_pressure;Samples;Min_cycle;Max_cycle;Signal;HPM_P1;HPM_P2
2023/12/07 00:00:51;;;;;;;15.47;13.53;;;3.10;99.90;;;;;;4954103;28;20420;-89
2023/12/07 00:03:17;;;;;;;17.03;13.83;;;3.20;99.90;;;;;;4954702;28;20417;-91
2023/12/07 00:05:43;;;;;;;17.33;14.00;;;3.20;99.90;;;;;;4954555;28;20827;-90
2023/12/07 00:08:11;;;;;;;18.25;15.25;;;3.00;99.90;;;;;;4954729;28;20436;-90
2023/12/07 00:10:37;;;;;;;16.73;14.55;;;3.00;99.90;;;;;;4954501;28;20483;-90
2023/12/07 00:13:03;;;;;;;17.10;14.00;;;3.30;99.90;;;;;;4954806;28;20507;-90
2023/12/07 00:15:28;;;;;;;17.17;14.00;;;3.00;99.90;;;;;;4944502;29;20424;-91
2023/12/07 00:17:54;;;;;;;16.50;13.80;;;3.10;99.90;;;;;;4951122;29;20425;-88
2023/12/07 00:20:20;;;;;;;17.83;14.48;;;3.30;99.90;;;;;;4935356;29;20429;-91
2023/12/07 00:22:45;;;;;;;18.17;14.03;;;3.00;99.90;;;;;;4935346;29;20442;-88
2023/12/07 00:25:11;;;;;;;19.80;14.50;;;3.20;99.90;;;;;;4935143;29;20501;-91
2023/12/07 00:27:37;;;;;;;18.57;14.33;;;3.00;99.90;;;;;;4934879;29;20487;-90
2023/12/07 00:30:03;;;;;;;18.38;14.60;;;3.10;99.90;;;;;;4934776;29;20996;-92
2023/12/07 00:32:29;;;;;;;16.95;13.93;;;2.90;99.90;;;;;;4950604;29;20417;-91
2023/12/07 00:34:55;;;;;;;18.70;13.90;;;3.20;99.90;;;;;;4949680;28;20422;-91
2023/12/07 00:37:20;;;;;;;16.52;13.73;;;2.90;99.90;;;;;;4954156;28;20416;-91
2023/12/07 00:39:46;;;;;;;18.23;14.90;;;2.90;99.90;;;;;;4953548;28;20416;-89
2023/12/07 00:42:11;;;;;;;18.75;14.10;;;2.90;99.90;;;;;;4969979;28;20781;-90
2023/12/07 00:44:41;;;;;;;16.40;13.57;;;2.90;99.90;;;;;;4952250;28;20422;-91
2023/12/07 00:47:07;;;;;;;17.88;14.18;;;3.10;99.90;;;;;;4934774;29;20422;-89
2023/12/07 00:49:33;;;;;;;15.90;14.00;;;2.80;99.90;;;;;;4934658;29;20445;-90
2023/12/07 00:51:58;;;;;;;17.25;13.32;;;3.10;99.90;;;;;;4934668;29;20413;-90
2023/12/07 00:54:24;;;;;;;16.63;14.13;;;2.80;99.90;;;;;;4934241;29;20952;-91
2023/12/07 00:56:51;;;;;;;17.88;13.82;;;2.80;99.90;;;;;;4934390;29;20417;-90
2023/12/07 00:59:16;;;;;;;17.70;13.23;;;2.80;99.90;;;;;;4934181;29;20414;-89
2023/12/07 01:01:42;;;;;;;17.37;13.67;;;2.70;99.90;;;;;;4933976;29;20414;-91
2023/12/07 01:04:08;;;;;;;17.05;13.60;;;2.70;99.90;;;;;;4934295;29;20991;-91
2023/12/07 01:06:33;;;;;;;18.17;14.50;;;2.70;99.90;;;;;;4950549;29;20410;-90
2023/12/07 01:08:59;;;;;;;17.33;14.00;;;2.50;99.90;;;;;;4933658;29;20441;-90
2023/12/07 01:11:25;;;;;;;17.57;14.67;;;2.50;99.90;;;;;;4934151;29;20449;-91
2023/12/07 01:13:51;;;;;;;16.02;13.23;;;2.40;99.90;;;;;;4933732;29;20425;-90
2023/12/07 01:16:16;;;;;;;19.73;13.80;;;2.40;99.90;;;;;;4947227;28;20413;-91
2023/12/07 01:18:42;;;;;;;16.58;13.40;;;2.30;99.90;;;;;;4943848;29;20425;-91
2023/12/07 01:21:08;;;;;;;17.52;13.13;;;2.20;99.90;;;;;;4938157;28;20961;-90
2023/12/07 01:23:33;;;;;;;18.73;14.18;;;2.20;99.90;;;;;;4952819;28;20409;-90
2023/12/07 01:26:02;;;;;;;17.30;13.83;;;2.20;99.90;;;;;;4933925;29;20493;-90
2023/12/07 01:28:28;;;;;;;20.77;15.05;;;2.30;99.90;;;;;;4949673;29;21051;-90
2023/12/07 01:30:53;;;;;;;18.67;14.52;;;2.10;99.90;;;;;;4949776;29;20826;-90
2023/12/07 01:33:19;;;;;;;19.10;14.10;;;2.10;99.90;;;;;;4934021;29;20413;-90
2023/12/07 01:35:45;;;;;;;17.23;14.07;;;2.10;99.90;;;;;;4933277;29;20410;-90
2023/12/07 01:38:10;;;;;;;22.37;14.50;;;2.10;99.90;;;;;;4933998;29;20433;-92
2023/12/07 01:40:36;;;;;;;18.97;14.00;;;2.10;99.90;;;;;;4933438;29;20905;-91
2023/12/07 01:43:02;;;;;;;18.10;13.68;;;2.20;99.90;;;;;;4944102;28;20499;-90
2023/12/07 01:45:27;;;;;;;21.92;15.77;;;2.20;99.90;;;;;;4952234;28;20413;-90
2023/12/07 01:47:54;;;;;;;20.67;13.55;;;2.20;99.90;;;;;;4952517;28;20434;-89
2023/12/07 01:50:23;;;;;;;20.10;14.60;;;2.20;99.90;;;;;;4952526;28;20404;-89
2023/12/07 01:52:52;;;;;;;21.75;15.10;;;2.60;99.90;;;;;;4952348;28;20440;-90
2023/12/07 01:55:18;;;;;;;19.67;14.27;;;2.30;99.90;;;;;;4952574;28;20420;-91
2023/12/07 01:57:45;;;;;;;18.48;13.57;;;2.30;99.90;;;;;;4968529;28;20420;-91
2023/12/07 02:00:12;;;;;;;18.55;13.77;;;2.30;99.90;;;;;;4952424;28;20475;-90
2023/12/07 02:02:38;;;;;;;20.27;14.27;;;2.30;99.90;;;;;;4952257;28;20409;-90
2023/12/07 02:05:05;;;;;;;21.30;14.02;;;2.40;99.90;;;;;;4952486;28;20463;-90
2023/12/07 02:07:31;;;;;;;19.17;14.35;;;2.40;99.90;;;;;;4952240;28;21290;-92
2023/12/07 02:09:58;;;;;;;19.35;14.43;;;2.40;99.90;;;;;;4952563;28;20487;-91
2023/12/07 02:12:24;;;;;;;16.98;14.02;;;2.40;99.90;;;;;;4952444;28;20404;-90
2023/12/07 02:14:51;;;;;;;17.98;13.38;;;2.50;99.90;;;;;;4952329;28;20414;-91
2023/12/07 02:17:36;;;;;;;17.85;13.75;;;2.40;99.90;;;;;;4952543;28;20532;-90
2023/12/07 02:20:11;;;;;;;17.95;13.73;;;2.40;99.90;;;;;;4952079;28;20426;-92
2023/12/07 02:22:48;;;;;;;16.70;13.05;;;2.40;99.90;;;;;;4952362;28;20447;-91
2023/12/07 02:25:17;;;;;;;18.40;14.40;;;2.30;99.90;;;;;;4952205;28;20459;-91
2023/12/07 02:27:47;;;;;;;19.27;14.25;;;2.40;99.90;;;;;;4951862;28;20486;-91
2023/12/07 02:30:13;;;;;;;22.37;15.10;;;2.40;99.90;;;;;;4952525;28;20865;-89
2023/12/07 02:32:41;;;;;;;23.83;15.45;;;2.40;99.90;;;;;;4951802;28;20412;-90
2023/12/07 02:35:08;;;;;;;22.45;17.42;;;2.40;99.90;;;;;;4951791;28;20409;-91
2023/12/07 02:37:49;;;;;;;22.52;16.55;;;2.40;99.90;;;;;;4951678;28;20829;-90
2023/12/07 02:40:21;;;;;;;30.60;18.58;;;2.40;99.90;;;;;;4952041;28;20451;-91
2023/12/07 02:42:48;;;;;;;26.73;18.23;;;2.40;99.90;;;;;;4951996;28;20420;-90
2023/12/07 02:45:15;;;;;;;23.73;17.40;;;2.30;99.90;;;;;;4951501;28;20408;-89
2023/12/07 02:47:43;;;;;;;27.40;17.80;;;2.50;99.90;;;;;;4968077;28;20401;-90
2023/12/07 02:50:09;;;;;;;23.33;16.58;;;2.40;99.90;;;;;;4952008;28;20482;-91
2023/12/07 02:52:35;;;;;;;26.85;17.60;;;2.20;99.90;;;;;;4951430;28;20470;-90
2023/12/07 02:55:02;;;;;;;21.23;14.45;;;2.10;99.90;;;;;;4951999;28;20963;-91
2023/12/07 02:57:28;;;;;;;22.75;14.57;;;2.00;99.90;;;;;;4933026;29;20492;-91
2023/12/07 02:59:53;;;;;;;26.20;16.35;;;2.00;99.90;;;;;;4932636;29;20493;-90
2023/12/07 03:02:19;;;;;;;20.48;14.30;;;1.90;99.90;;;;;;4947921;29;20476;-91
2023/12/07 03:04:45;;;;;;;17.33;13.20;;;1.90;99.90;;;;;;4940016;28;20482;-90
2023/12/07 03:07:10;;;;;;;19.47;13.80;;;1.80;99.90;;;;;;4944364;28;20420;-90
2023/12/07 03:09:36;;;;;;;16.10;12.47;;;1.80;99.90;;;;;;4967885;28;20935;-91
2023/12/07 03:12:02;;;;;;;16.80;12.80;;;1.60;99.90;;;;;;4951617;28;20424;-90
2023/12/07 03:14:27;;;;;;;17.05;12.65;;;1.60;99.90;;;;;;4951493;28;20438;-90
2023/12/07 03:16:53;;;;;;;17.20;12.73;;;1.60;99.90;;;;;;4958455;28;20489;-91
2023/12/07 03:19:19;;;;;;;18.07;12.80;;;1.70;99.90;;;;;;4931598;29;20406;-90
2023/12/07 03:21:44;;;;;;;14.57;10.63;;;1.60;99.90;;;;;;4931363;28;20413;-90
2023/12/07 03:24:10;;;;;;;20.73;13.73;;;1.40;99.90;;;;;;4931946;29;20410;-92
2023/12/07 03:26:37;;;;;;;21.35;13.63;;;1.70;99.90;;;;;;4931993;29;20418;-89
2023/12/07 03:29:03;;;;;;;20.43;13.87;;;1.30;99.90;;;;;;4931372;29;20529;-90
2023/12/07 03:31:29;;;;;;;16.97;12.73;;;1.30;99.90;;;;;;4934152;28;20571;-90
2023/12/07 03:33:56;;;;;;;22.67;16.10;;;1.30;99.90;;;;;;4952079;28;20914;-92
2023/12/07 03:36:22;;;;;;;20.40;14.13;;;1.20;99.90;;;;;;4935615;28;20406;-90
2023/12/07 03:38:48;;;;;;;17.75;14.15;;;1.20;99.90;;;;;;4936121;29;20505;-90
2023/12/07 03:41:14;;;;;;;19.05;13.80;;;1.30;99.90;;;;;;4935466;29;20422;-89
2023/12/07 03:43:40;;;;;;;22.55;15.95;;;1.10;99.90;;;;;;4935737;29;20421;-89
2023/12/07 03:46:06;;;;;;;24.27;15.60;;;1.10;99.90;;;;;;4951682;28;20941;-90
2023/12/07 03:48:33;;;;;;;24.08;16.70;;;1.10;99.90;;;;;;4935642;28;20445;-90
2023/12/07 03:50:59;;;;;;;24.48;17.40;;;1.00;99.90;;;;;;4935409;29;20413;-91
2023/12/07 03:53:24;;;;;;;28.85;20.15;;;1.10;99.90;;;;;;4935707;29;20908;-91
2023/12/07 03:55:50;;;;;;;32.30;20.15;;;1.00;99.90;;;;;;4935747;29;20420;-89
2023/12/07 03:58:16;;;;;;;37.63;22.25;;;1.00;99.90;;;;;;4935019;29;20505;-89
2023/12/07 04:00:42;;;;;;;38.50;20.45;;;1.00;99.90;;;;;;4935377;28;20453;-89
2023/12/07 04:03:08;;;;;;;24.10;18.77;;;1.00;99.90;;;;;;4935482;28;20421;-90
2023/12/07 04:05:34;;;;;;;34.25;19.65;;;0.90;99.90;;;;;;4935661;29;20461;-89
2023/12/07 04:07:59;;;;;;;29.23;19.00;;;0.90;99.90;;;;;;4942383;28;20510;-89
2023/12/07 04:10:25;;;;;;;24.48;15.32;;;0.90;99.90;;;;;;4954233;28;20408;-90
2023/12/07 04:12:54;;;;;;;25.48;15.98;;;1.00;99.90;;;;;;4970408;28;20404;-90
2023/12/07 04:15:20;;;;;;;23.85;16.23;;;1.00;99.90;;;;;;4953989;28;20427;-91
2023/12/07 04:17:46;;;;;;;22.20;15.15;;;0.80;99.90;;;;;;4953990;28;20594;-89
2023/12/07 04:20:13;;;;;;;24.25;16.58;;;1.00;99.90;;;;;;4954066;28;20404;-89
2023/12/07 04:22:39;;;;;;;29.60;17.88;;;0.80;99.90;;;;;;4954233;28;20404;-91
2023/12/07 04:25:05;;;;;;;26.40;17.20;;;0.80;99.90;;;;;;4954022;28;20419;-89
2023/12/07 04:27:32;;;;;;;29.77;17.88;;;0.80;99.90;;;;;;4954573;28;20844;-91
2023/12/07 04:29:57;;;;;;;33.70;18.83;;;0.80;99.90;;;;;;4953862;28;20420;-89
2023/12/07 04:32:23;;;;;;;42.80;21.83;;;1.20;99.90;;;;;;4953705;28;20409;-90
2023/12/07 04:34:49;;;;;;;50.60;22.47;;;0.80;99.90;;;;;;4970015;28;20412;-90
2023/12/07 04:37:15;;;;;;;43.50;22.00;;;0.90;99.90;;;;;;4953561;28;20424;-90
2023/12/07 04:39:41;;;;;;;37.10;21.63;;;1.00;99.90;;;;;;4954652;28;20424;-90
2023/12/07 04:42:06;;;;;;;43.65;23.30;;;0.80;99.90;;;;;;4938052;29;20420;-89
2023/12/07 04:44:32;;;;;;;40.00;22.10;;;1.00;99.90;;;;;;4934574;29;20446;-90
2023/12/07 04:46:58;;;;;;;44.35;22.95;;;0.90;99.90;;;;;;4934562;29;20425;-90
2023/12/07 04:49:23;;;;;;;46.75;22.80;;;0.90;99.90;;;;;;4934249;29;20437;-90
2023/12/07 04:51:49;;;;;;;37.93;22.00;;;0.90;99.90;;;;;;4934542;29;20442;-90
2023/12/07 04:54:15;;;;;;;51.70;24.40;;;1.00;99.90;;;;;;4934188;29;20417;-90
2023/12/07 04:56:41;;;;;;;46.60;24.17;;;1.00;99.90;;;;;;4934933;29;20406;-90
2023/12/07 04:59:08;;;;;;;36.92;21.10;;;1.00;99.90;;;;;;4934378;29;20410;-90
2023/12/07 05:01:35;;;;;;;46.08;24.08;;;1.10;99.90;;;;;;4934329;29;20460;-89
2023/12/07 05:04:03;;;;;;;38.03;22.63;;;1.30;99.90;;;;;;4934013;29;20410;-89
2023/12/07 05:06:30;;;;;;;39.03;22.88;;;1.10;99.90;;;;;;4950442;29;20414;-90
2023/12/07 05:08:55;;;;;;;41.80;24.30;;;1.20;99.90;;;;;;4934094;29;20433;-91
2023/12/07 05:11:21;;;;;;;39.65;24.73;;;1.20;99.90;;;;;;4933383;29;20414;-91
2023/12/07 05:13:47;;;;;;;41.00;22.77;;;1.20;99.90;;;;;;4937345;28;20503;-91
2023/12/07 05:16:13;;;;;;;39.65;24.00;;;1.20;99.90;;;;;;4953046;28;20412;-90
2023/12/07 05:18:39;;;;;;;42.53;24.92;;;1.60;99.90;;;;;;4953302;28;20466;-90
2023/12/07 05:21:06;;;;;;;55.17;26.80;;;1.30;99.90;;;;;;4953203;28;21296;-89
2023/12/07 05:23:31;;;;;;;59.50;27.88;;;1.30;99.90;;;;;;4952793;28;20555;-90
2023/12/07 05:25:57;;;;;;;46.67;24.38;;;1.30;99.90;;;;;;4952908;28;20491;-90
2023/12/07 05:28:23;;;;;;;40.05;23.98;;;1.40;99.90;;;;;;4952864;28;20433;-91
2023/12/07 05:30:48;;;;;;;41.20;22.70;;;1.40;99.90;;;;;;4952836;28;20416;-90
2023/12/07 05:33:15;;;;;;;40.87;22.43;;;1.40;99.90;;;;;;4938638;29;20413;-90
2023/12/07 05:35:41;;;;;;;42.58;22.92;;;1.60;99.90;;;;;;4933826;29;20781;-90
2023/12/07 05:38:07;;;;;;;47.33;23.67;;;1.40;99.90;;;;;;4933540;29;20413;-89
2023/12/07 05:40:33;;;;;;;39.13;22.13;;;1.50;99.90;;;;;;4933489;29;20410;-90
2023/12/07 05:42:59;;;;;;;32.50;20.67;;;1.50;99.90;;;;;;4933769;29;20420;-90
2023/12/07 05:45:26;;;;;;;39.80;23.88;;;1.50;99.90;;;;;;4948191;28;20416;-91
2023/12/07 05:47:52;;;;;;;38.53;23.20;;;1.60;99.90;;;;;;4952545;28;20439;-89
2023/12/07 05:50:18;;;;;;;57.30;29.23;;;1.70;99.90;;;;;;4961730;28;20414;-90
2023/12/07 05:52:43;;;;;;;35.78;23.17;;;1.50;99.90;;;;;;4933743;29;20509;-89
2023/12/07 05:55:09;;;;;;;42.15;24.05;;;1.60;99.90;;;;;;4932455;29;20489;-89
2023/12/07 05:57:35;;;;;;;39.38;24.08;;;1.50;99.90;;;;;;4933560;29;20429;-90
2023/12/07 06:00:01;;;;;;;34.50;22.43;;;1.50;99.90;;;;;;4933204;29;20941;-91
2023/12/07 06:02:27;;;;;;;36.93;23.80;;;1.50;99.90;;;;;;4933222;29;20484;-91
2023/12/07 06:04:53;;;;;;;38.23;24.20;;;1.50;99.90;;;;;;4933237;29;20488;-91
2023/12/07 06:07:18;;;;;;;41.17;26.25;;;1.50;99.90;;;;;;4932617;29;20421;-90
2023/12/07 06:09:44;;;;;;;41.33;26.00;;;1.80;99.90;;;;;;4932894;29;20454;-90
2023/12/07 06:12:10;;;;;;;32.53;22.77;;;1.60;99.90;;;;;;4932547;29;20425;-90
2023/12/07 06:14:35;;;;;;;34.50;22.35;;;1.70;99.90;;;;;;4939430;28;20415;-89
2023/12/07 06:17:01;;;;;;;35.13;22.13;;;1.70;99.90;;;;;;4948533;28;20512;-89
2023/12/07 06:19:27;;;;;;;34.05;22.02;;;1.60;99.90;;;;;;4932562;29;20414;-90
2023/12/07 06:21:52;;;;;;;33.25;21.35;;;1.50;99.90;;;;;;4932202;29;20456;-90
2023/12/07 06:24:18;;;;;;;30.37;20.80;;;1.80;99.90;;;;;;4948162;29;20437;-90
2023/12/07 06:26:44;;;;;;;32.20;21.67;;;1.80;99.90;;;;;;4931788;29;20414;-90
2023/12/07 06:29:10;;;;;;;36.93;21.90;;;1.60;99.90;;;;;;4930095;29;20442;-90
2023/12/07 06:31:35;;;;;;;31.17;20.63;;;1.90;99.90;;;;;;4933176;29;20406;-89
2023/12/07 06:34:02;;;;;;;38.50;22.40;;;1.70;99.90;;;;;;4932150;29;20430;-90
2023/12/07 06:36:28;;;;;;;37.22;22.60;;;1.80;99.90;;;;;;4932614;29;20410;-90
2023/12/07 06:38:55;;;;;;;34.38;21.98;;;1.70;99.90;;;;;;4932901;29;21003;-91
2023/12/07 06:41:21;;;;;;;38.05;23.40;;;1.70;99.90;;;;;;4932611;29;20476;-90
2023/12/07 06:43:47;;;;;;;36.63;24.08;;;1.70;99.90;;;;;;4936204;28;20409;-88
2023/12/07 06:46:13;;;;;;;39.93;24.40;;;1.70;99.90;;;;;;4940752;28;20961;-89
2023/12/07 06:48:41;;;;;;;37.30;24.30;;;1.70;99.90;;;;;;4941028;28;20469;-89
2023/12/07 06:51:07;;;;;;;40.13;24.27;;;1.60;99.90;;;;;;4938549;28;20957;-88
2023/12/07 06:53:33;;;;;;;37.27;23.53;;;1.70;99.90;;;;;;4959166;28;20417;-90
2023/12/07 06:55:58;;;;;;;42.35;25.10;;;1.40;99.90;;;;;;4941899;28;20423;-90
2023/12/07 06:58:24;;;;;;;38.57;22.73;;;1.70;99.90;;;;;;4932635;29;20410;-90
2023/12/07 07:00:50;;;;;;;42.58;24.10;;;1.50;99.90;;;;;;4931962;29;20410;-89
2023/12/07 07:03:16;;;;;;;41.73;24.17;;;1.50;99.90;;;;;;4945899;28;20428;-89
2023/12/07 07:05:42;;;;;;;50.13;25.33;;;1.30;99.90;;;;;;4952995;28;20990;-91
2023/12/07 07:08:08;;;;;;;41.78;23.85;;;1.70;99.90;;;;;;4954971;28;20528;-89
2023/12/07 07:10:34;;;;;;;39.08;22.95;;;1.40;99.90;;;;;;4954964;28;20408;-90
2023/12/07 07:13:04;;;;;;;52.50;26.95;;;1.40;99.90;;;;;;4955258;28;20404;-89
2023/12/07 07:15:33;;;;;;;67.40;28.52;;;1.30;99.90;;;;;;4959699;28;20414;-88
2023/12/07 07:17:58;;;;;;;52.60;26.35;;;1.30;99.90;;;;;;4936419;29;20481;-89
2023/12/07 07:20:25;;;;;;;48.10;26.55;;;1.20;99.90;;;;;;4936247;29;20890;-88
2023/12/07 07:22:51;;;;;;;50.80;26.77;;;1.20;99.90;;;;;;4935788;29;20421;-88
2023/12/07 07:25:18;;;;;;;70.87;30.03;;;1.20;99.90;;;;;;4935963;29;20761;-91
2023/12/07 07:27:47;;;;;;;49.95;27.88;;;1.10;99.90;;;;;;4936318;29;20526;-90
2023/12/07 07:30:13;;;;;;;59.83;29.33;;;1.10;99.90;;;;;;4935386;29;20529;-89
2023/12/07 07:32:39;;;;;;;78.60;33.00;;;1.00;99.90;;;;;;4935071;29;20965;-90
2023/12/07 07:35:05;;;;;;;61.78;31.65;;;1.00;99.90;;;;;;4935294;29;20425;-90
2023/12/07 07:37:31;;;;;;;62.00;30.30;;;1.00;99.90;;;;;;4970282;28;20408;-88
2023/12/07 07:39:57;;;;;;;57.25;30.20;;;1.20;99.90;;;;;;4954414;28;20861;-88
2023/12/07 07:42:22;;;;;;;66.00;32.35;;;0.90;99.90;;;;;;4954418;28;20420;-89
2023/12/07 07:44:48;;;;;;;59.47;30.03;;;0.90;99.90;;;;;;4955279;28;20412;-90
2023/12/07 07:47:14;;;;;;;87.63;32.47;;;1.10;99.90;;;;;;4954254;28;20435;-90
2023/12/07 07:49:39;;;;;;;70.40;31.40;;;1.00;99.90;;;;;;4954249;28;20440;-91
2023/12/07 07:52:05;;;;;;;57.30;29.20;;;0.80;99.90;;;;;;4954606;28;20415;-89
2023/12/07 07:54:31;;;;;;;83.40;33.58;;;1.00;99.90;;;;;;4954477;28;21023;-89
2023/12/07 07:56:57;;;;;;;65.05;32.35;;;0.80;99.90;;;;;;4954418;28;20555;-90
2023/12/07 07:59:22;;;;;;;79.47;36.17;;;0.80;99.90;;;;;;4954543;28;20424;-89
2023/12/07 08:01:48;;;;;;;70.97;34.47;;;0.80;99.90;;;;;;4954142;28;20495;-90
2023/12/07 08:04:15;;;;;;;68.47;35.13;;;0.80;99.90;;;;;;4953774;28;20408;-89
2023/12/07 08:06:41;;;;;;;65.27;33.50;;;1.10;99.90;;;;;;4954293;28;20412;-90
2023/12/07 08:09:08;;;;;;;56.60;32.00;;;0.80;99.90;;;;;;4953949;28;20932;-89
2023/12/07 08:11:34;;;;;;;71.45;35.97;;;0.80;99.90;;;;;;4952875;28;20967;-89
2023/12/07 08:14:00;;;;;;;63.72;32.97;;;0.80;99.90;;;;;;4935115;29;20418;-90
2023/12/07 08:16:27;;;;;;;67.40;34.80;;;0.80;99.90;;;;;;4934858;28;20422;-89
2023/12/07 08:18:52;;;;;;;56.72;32.00;;;1.00;99.90;;;;;;4936817;28;20455;-90
2023/12/07 08:21:20;;;;;;;54.65;31.80;;;0.90;99.90;;;;;;4953851;28;20459;-90
2023/12/07 08:23:46;;;;;;;57.03;31.43;;;0.90;99.90;;;;;;4954239;28;20413;-89
2023/12/07 08:26:14;;;;;;;54.10;31.47;;;1.00;99.90;;;;;;4953278;28;20415;-89
2023/12/07 08:28:42;;;;;;;56.63;32.13;;;1.10;99.90;;;;;;4952742;28;20486;-88
2023/12/07 08:31:08;;;;;;;52.65;30.42;;;1.00;99.90;;;;;;4952727;28;20413;-89
2023/12/07 08:33:34;;;;;;;56.15;30.95;;;1.30;99.90;;;;;;4952834;28;20420;-88
2023/12/07 08:36:03;;;;;;;54.63;32.90;;;1.20;99.90;;;;;;4952492;28;20444;-90
2023/12/07 08:38:28;;;;;;;61.92;34.50;;;1.10;99.90;;;;;;4952871;28;20413;-89
2023/12/07 08:40:54;;;;;;;67.30;36.42;;;1.20;99.90;;;;;;4969881;28;20415;-89
2023/12/07 08:43:22;;;;;;;62.25;35.60;;;1.50;99.90;;;;;;4953031;28;20419;-88
2023/12/07 08:45:49;;;;;;;64.07;36.75;;;1.20;99.90;;;;;;4953678;28;21083;-89
2023/12/07 08:48:15;;;;;;;60.00;33.25;;;1.20;99.90;;;;;;4953376;28;20444;-89
2023/12/07 08:50:41;;;;;;;58.63;33.53;;;1.00;99.90;;;;;;4952962;28;20776;-89
2023/12/07 08:53:06;;;;;;;62.55;35.95;;;1.30;99.90;;;;;;4952898;28;20804;-87
2023/12/07 08:55:32;;;;;;;57.50;34.75;;;1.40;99.90;;;;;;4952653;28;20419;-90
2023/12/07 08:57:59;;;;;;;60.28;35.85;;;1.30;99.90;;;;;;4969472;28;20408;-88
2023/12/07 09:00:25;;;;;;;62.20;35.63;;;1.40;99.90;;;;;;4952724;28;20412;-88
2023/12/07 09:02:51;;;;;;;61.53;36.75;;;1.80;99.90;;;;;;4953334;28;20409;-90
2023/12/07 09:05:17;;;;;;;59.13;36.70;;;1.50;99.90;;;;;;4953145;28;20465;-89
2023/12/07 09:07:44;;;;;;;59.05;37.67;;;1.60;99.90;;;;;;4953598;28;20758;-89
2023/12/07 09:10:10;;;;;;;56.92;35.30;;;1.60;99.90;;;;;;4957394;28;20409;-88
2023/12/07 09:12:36;;;;;;;58.53;36.35;;;1.70;99.90;;;;;;4933746;29;20951;-89
2023/12/07 09:15:03;;;;;;;63.33;38.25;;;1.70;99.90;;;;;;4934023;29;20418;-89
2023/12/07 09:17:29;;;;;;;57.50;35.60;;;1.80;99.90;;;;;;4933543;29;20414;-90
2023/12/07 09:19:55;;;;;;;51.83;34.30;;;1.80;99.90;;;;;;4947403;28;20491;-89
2023/12/07 09:22:21;;;;;;;54.08;34.45;;;2.00;99.90;;;;;;4952289;28;20479;-90
2023/12/07 09:24:47;;;;;;;49.63;32.72;;;2.20;99.90;;;;;;4953356;28;20484;-89
2023/12/07 09:27:15;;;;;;;47.72;32.92;;;2.30;99.90;;;;;;4953111;28;20864;-90
2023/12/07 09:29:41;;;;;;;43.85;31.45;;;2.20;99.90;;;;;;4952643;28;20436;-92
2023/12/07 09:32:07;;;;;;;34.13;27.13;;;2.50;99.90;;;;;;4952552;28;20404;-90
2023/12/07 09:34:34;;;;;;;29.55;24.55;;;3.10;99.90;;;;;;4952898;28;20783;-90
2023/12/07 09:37:09;;;;;;;26.60;23.13;;;3.30;99.90;;;;;;4952617;28;20796;-90
2023/12/07 09:39:36;;;;;;;24.48;21.23;;;4.10;99.90;;;;;;4952473;28;20408;-92
2023/12/07 09:42:02;;;;;;;25.20;21.83;;;4.30;99.90;;;;;;4952978;28;20408;-91
2023/12/07 09:44:28;;;;;;;23.30;20.80;;;4.70;99.90;;;;;;4952880;28;20433;-90
2023/12/07 09:46:54;;;;;;;21.55;19.23;;;5.10;99.90;;;;;;4952989;28;20419;-92
2023/12/07 09:49:21;;;;;;;20.95;18.67;;;5.20;99.90;;;;;;4952721;28;20496;-91
2023/12/07 09:51:47;;;;;;;23.80;19.93;;;5.10;99.90;;;;;;4951498;28;20547;-90
2023/12/07 09:54:13;;;;;;;24.65;20.15;;;4.90;99.90;;;;;;4953166;28;20416;-88
2023/12/07 09:56:39;;;;;;;23.70;20.65;;;4.70;99.90;;;;;;4952358;28;20416;-91
2023/12/07 09:59:07;;;;;;;26.52;21.67;;;4.50;99.90;;;;;;4952905;28;20412;-92
2023/12/07 10:01:35;;;;;;;22.05;19.33;;;4.30;99.90;;;;;;4951987;28;20421;-89
2023/12/07 10:04:20;;;;;;;26.45;22.40;;;4.30;99.90;;;;;;4952096;28;20404;-92
2023/12/07 10:06:47;;;;;;;26.92;22.13;;;3.90;99.90;;;;;;4945908;29;20465;-93
2023/12/07 10:09:13;;;;;;;25.50;21.55;;;3.80;99.90;;;;;;4932600;29;20444;-92
2023/12/07 10:11:40;;;;;;;24.48;20.27;;;3.70;99.90;;;;;;4933674;29;20493;-92
2023/12/07 10:14:10;;;;;;;23.52;20.17;;;3.60;99.90;;;;;;4949149;29;20848;-92
2023/12/07 10:16:36;;;;;;;25.40;20.88;;;3.50;99.90;;;;;;4932910;29;20414;-90
2023/12/07 10:19:17;;;;;;;25.02;19.88;;;3.50;99.90;;;;;;4948900;29;20406;-92
2023/12/07 10:21:44;;;;;;;26.17;21.67;;;3.40;99.90;;;;;;4949159;29;20406;-93
2023/12/07 10:24:10;;;;;;;25.90;22.17;;;3.60;99.90;;;;;;4932719;29;20421;-92
2023/12/07 10:26:38;;;;;;;28.75;22.65;;;3.40;99.90;;;;;;4932405;29;20428;-92
2023/12/07 10:29:07;;;;;;;27.20;22.40;;;3.30;99.90;;;;;;4948797;29;20445;-92
2023/12/07 10:31:33;;;;;;;28.52;23.70;;;3.60;99.90;;;;;;4943576;28;20423;-92
2023/12/07 10:34:00;;;;;;;28.97;23.83;;;3.50;99.90;;;;;;4951889;28;20534;-92
2023/12/07 10:36:26;;;;;;;28.77;23.75;;;3.70;99.90;;;;;;4951614;28;20427;-92
2023/12/07 10:38:52;;;;;;;29.15;23.73;;;3.60;99.90;;;;;;4951802;28;20408;-91
2023/12/07 10:41:23;;;;;;;29.25;23.80;;;3.70;99.90;;;;;;4951098;28;20419;-92
2023/12/07 10:43:57;;;;;;;26.50;23.40;;;3.80;99.90;;;;;;4939025;29;20421;-93
2023/12/07 10:46:23;;;;;;;26.57;22.97;;;4.30;99.90;;;;;;4928558;29;20425;-93
2023/12/07 10:48:54;;;;;;;24.40;21.53;;;4.60;99.90;;;;;;4931827;29;20771;-93
2023/12/07 10:51:29;;;;;;;27.02;21.05;;;4.90;99.90;;;;;;4932543;29;20481;-92
2023/12/07 10:53:58;;;;;;;24.60;22.00;;;5.40;99.90;;;;;;4932598;29;20426;-92
2023/12/07 10:56:42;;;;;;;25.42;22.00;;;5.40;99.90;;;;;;4932628;29;20409;-94
2023/12/07 10:59:13;;;;;;;23.88;20.35;;;5.40;99.90;;;;;;4945739;28;20432;-92
2023/12/07 11:01:40;;;;;;;23.65;21.15;;;5.50;99.90;;;;;;4950415;28;20412;-93
2023/12/07 11:04:06;;;;;;;24.15;21.48;;;5.50;99.90;;;;;;4950616;28;20424;-92
2023/12/07 11:06:34;;;;;;;24.52;20.52;;;5.20;99.90;;;;;;4951341;28;20522;-91
2023/12/07 11:09:06;;;;;;;23.90;21.03;;;5.10;99.90;;;;;;4967782;28;20804;-95
2023/12/07 11:11:52;;;;;;;24.20;20.93;;;5.10;99.90;;;;;;4950554;28;20420;-92
2023/12/07 11:14:19;;;;;;;25.20;21.90;;;5.10;99.90;;;;;;4966585;28;20428;-93
2023/12/07 11:16:46;;;;;;;25.08;22.08;;;5.10;99.90;;;;;;4941116;29;20410;-90
2023/12/07 11:19:33;;;;;;;28.13;22.65;;;5.20;99.90;;;;;;4931846;29;20410;-92
2023/12/07 11:22:04;;;;;;;26.27;21.58;;;4.90;99.90;;;;;;4931994;29;20426;-93
2023/12/07 11:24:30;;;;;;;25.38;21.30;;;4.80;99.90;;;;;;4932191;29;20425;-92
2023/12/07 11:26:56;;;;;;;28.73;22.85;;;4.70;99.90;;;;;;4931530;29;20425;-93
2023/12/07 11:29:27;;;;;;;29.35;22.75;;;4.90;99.90;;;;;;4932283;29;20429;-92
2023/12/07 11:31:57;;;;;;;26.83;22.48;;;4.70;99.90;;;;;;4931854;29;20814;-92
2023/12/07 11:34:42;;;;;;;26.27;21.37;;;4.50;99.90;;;;;;4931929;29;20418;-94
2023/12/07 11:37:09;;;;;;;24.42;20.80;;;4.40;99.90;;;;;;4932090;29;20414;-93
2023/12/07 11:39:36;;;;;;;23.95;20.17;;;4.40;99.90;;;;;;4947989;29;20755;-94
2023/12/07 11:42:13;;;;;;;26.48;22.58;;;4.40;99.90;;;;;;4931819;29;20425;-93
2023/12/07 11:44:40;;;;;;;26.38;21.25;;;4.40;99.90;;;;;;4932725;29;20478;-94
2023/12/07 11:47:09;;;;;;;23.92;21.17;;;4.30;99.90;;;;;;4932633;29;20418;-93
2023/12/07 11:49:34;;;;;;;25.10;21.02;;;4.60;99.90;;;;;;4930740;29;20449;-94
2023/12/07 11:52:11;;;;;;;25.45;21.17;;;4.60;99.90;;;;;;4931853;29;20818;-94
2023/12/07 11:54:37;;;;;;;25.83;21.67;;;4.50;99.90;;;;;;4935937;29;20429;-91
2023/12/07 11:57:04;;;;;;;22.92;18.92;;;4.60;99.90;;;;;;4950934;29;20724;-93
2023/12/07 11:59:31;;;;;;;23.48;20.05;;;4.60;99.90;;;;;;4935538;29;20410;-90
2023/12/07 12:01:59;;;;;;;25.58;21.42;;;4.80;99.90;;;;;;4944206;28;20431;-93
2023/12/07 12:04:25;;;;;;;25.20;21.65;;;4.70;99.90;;;;;;4970578;28;20420;-95
2023/12/07 12:06:51;;;;;;;23.80;20.93;;;4.80;99.90;;;;;;4970134;28;20405;-93
2023/12/07 12:09:17;;;;;;;25.57;21.17;;;5.40;99.90;;;;;;4954341;28;20475;-94
2023/12/07 12:11:47;;;;;;;25.10;21.30;;;4.90;99.90;;;;;;4953373;28;20950;-93
2023/12/07 12:14:16;;;;;;;25.33;22.73;;;5.30;99.90;;;;;;4954337;28;20424;-94
2023/12/07 12:16:44;;;;;;;24.30;21.40;;;5.10;99.90;;;;;;4954604;28;20491;-93
2023/12/07 12:19:10;;;;;;;27.48;23.17;;;5.00;99.90;;;;;;4953891;28;20949;-93
2023/12/07 12:21:38;;;;;;;29.65;24.02;;;5.10;99.90;;;;;;4972063;28;20803;-93
2023/12/07 12:24:06;;;;;;;31.02;25.02;;;5.00;99.90;;;;;;4953449;28;20495;-93
2023/12/07 12:26:34;;;;;;;26.15;23.10;;;4.90;99.90;;;;;;4953580;28;20420;-93
2023/12/07 12:29:01;;;;;;;30.33;24.98;;;4.80;99.90;;;;;;4950212;28;20987;-93
2023/12/07 12:31:28;;;;;;;33.58;26.08;;;4.60;99.90;;;;;;4936929;29;20401;-93
2023/12/07 12:33:54;;;;;;;43.90;26.88;;;4.20;99.90;;;;;;4934778;29;20410;-92